createdAt,value
2023-05-09T00:02:26.325Z,101815.69
2023-05-09T00:04:56.970Z,101807.66
2023-05-09T00:07:26.062Z,101725.69
2023-05-09T00:09:54.417Z,101811.28
2023-05-09T00:12:28.549Z,101621.31
2023-05-09T00:15:02.473Z,101600.88
2023-05-09T00:17:31.119Z,101731.94
2023-05-09T00:20:01.761Z,101802.00
2023-05-09T00:22:30.554Z,101813.13
2023-05-09T00:24:59.267Z,101722.53
2023-05-09T00:27:32.286Z,101602.47
2023-05-09T00:30:05.050Z,101783.97
2023-05-09T00:32:35.761Z,101743.50
2023-05-09T00:35:04.591Z,101624.53
2023-05-09T00:37:35.286Z,101691.22
2023-05-09T00:40:03.951Z,101775.59
2023-05-09T00:42:35.339Z,101803.25
2023-05-09T00:45:04.357Z,101704.72
2023-05-09T00:47:33.064Z,101567.94
2023-05-09T00:50:02.169Z,101781.84
2023-05-09T00:52:31.311Z,101743.72
2023-05-09T00:55:00.281Z,101703.25
2023-05-09T00:57:28.825Z,101713.72
2023-05-09T00:59:59.485Z,101694.22
2023-05-09T01:02:30.611Z,101529.22
2023-05-09T01:05:02.100Z,101419.91
2023-05-09T01:07:39.024Z,101463.50
2023-05-09T01:10:16.887Z,101483.41
2023-05-09T01:12:49.215Z,101774.78
2023-05-09T01:15:29.952Z,101724.41
2023-05-09T01:18:02.824Z,101398.50
2023-05-09T01:20:35.192Z,101613.75
2023-05-09T01:23:22.632Z,101478.94
2023-05-09T01:26:05.233Z,101734.47
2023-05-09T01:28:55.237Z,101553.50
2023-05-09T01:31:29.545Z,101460.81
2023-05-09T01:34:02.104Z,101602.38
2023-05-09T01:36:34.139Z,101776.69
2023-05-09T01:39:05.589Z,101561.44
2023-05-09T01:41:37.482Z,101633.00
2023-05-09T01:44:10.058Z,101726.56
2023-05-09T01:46:41.886Z,101736.41
2023-05-09T01:49:10.960Z,101639.44
2023-05-09T01:51:43.861Z,101470.38
2023-05-09T01:54:13.277Z,101713.38
2023-05-09T01:56:47.118Z,101725.69
2023-05-09T01:59:17.356Z,101363.19
2023-05-09T02:01:50.112Z,101720.44
2023-05-09T02:04:21.924Z,101642.22
2023-05-09T02:06:52.533Z,101581.63
2023-05-09T02:09:22.786Z,101601.44
2023-05-09T02:11:51.160Z,101690.16
2023-05-09T02:14:19.583Z,101732.84
2023-05-09T02:16:50.261Z,101594.81
2023-05-09T02:19:18.878Z,101573.06
2023-05-09T02:21:47.342Z,101644.97
2023-05-09T02:24:15.923Z,101585.97
2023-05-09T02:26:44.787Z,101691.84
2023-05-09T02:29:14.927Z,101691.19
2023-05-09T02:31:45.283Z,101528.34
2023-05-09T02:34:17.464Z,101660.16
2023-05-09T02:36:46.258Z,101593.16
2023-05-09T02:39:17.818Z,101366.28
2023-05-09T02:41:50.516Z,101532.44
2023-05-09T02:44:18.984Z,101336.38
2023-05-09T02:46:48.995Z,101515.75
2023-05-09T02:49:31.339Z,101346.41
2023-05-09T02:52:00.752Z,101672.97
2023-05-09T02:54:29.300Z,101687.31
2023-05-09T02:56:57.863Z,101618.41
2023-05-09T02:59:27.175Z,101677.47
2023-05-09T03:01:56.013Z,101698.91
2023-05-09T03:04:30.663Z,101676.59
2023-05-09T03:06:59.750Z,101493.03
2023-05-09T03:09:27.884Z,101638.72
2023-05-09T03:11:56.725Z,101671.25
2023-05-09T03:14:25.598Z,101652.00
2023-05-09T03:16:54.103Z,101421.97
2023-05-09T03:19:22.733Z,101532.56
2023-05-09T03:21:53.846Z,101638.59
2023-05-09T03:24:23.351Z,101648.88
2023-05-09T03:26:51.834Z,101491.13
2023-05-09T03:29:21.936Z,101535.41
2023-05-09T03:31:50.179Z,101681.94
2023-05-09T03:34:19.576Z,101647.13
2023-05-09T03:36:47.807Z,101615.59
2023-05-09T03:39:19.192Z,101629.28
2023-05-09T03:41:47.370Z,101622.75
2023-05-09T03:44:16.755Z,101413.53
2023-05-09T03:46:46.912Z,101650.69
2023-05-09T03:49:15.680Z,101644.44
2023-05-09T03:51:44.086Z,101638.16
2023-05-09T03:54:14.074Z,101648.13
2023-05-09T03:56:45.159Z,101374.50
2023-05-09T03:59:13.273Z,101598.34
2023-05-09T04:01:41.850Z,101616.19
2023-05-09T04:04:10.243Z,101565.53
2023-05-09T04:06:38.873Z,101657.72
2023-05-09T04:09:07.139Z,101559.13
2023-05-09T04:11:37.438Z,101328.06
2023-05-09T04:14:07.506Z,101560.19
2023-05-09T04:16:36.040Z,101435.78
2023-05-09T04:19:04.620Z,101630.13
2023-05-09T04:21:33.650Z,101409.25
2023-05-09T04:24:01.809Z,101618.53
2023-05-09T04:26:32.780Z,101614.03
2023-05-09T04:29:01.705Z,101651.53
2023-05-09T04:31:32.768Z,101613.28
2023-05-09T04:34:05.341Z,101617.56
2023-05-09T04:36:33.975Z,101617.44
2023-05-09T04:39:02.189Z,101597.75
2023-05-09T04:41:30.254Z,101609.47
2023-05-09T04:43:58.293Z,101612.91
2023-05-09T04:46:26.569Z,101612.69
2023-05-09T04:48:56.151Z,101619.97
2023-05-09T04:51:24.345Z,101609.25
2023-05-09T04:53:53.535Z,101521.81
2023-05-09T04:56:22.073Z,101624.25
2023-05-09T04:58:50.471Z,101606.56
2023-05-09T05:01:18.599Z,101612.03
2023-05-09T05:03:47.275Z,101607.78
2023-05-09T05:06:16.839Z,101602.66
2023-05-09T05:08:45.180Z,101602.66
2023-05-09T05:11:14.081Z,101597.50
2023-05-09T05:13:43.540Z,101448.72
2023-05-09T05:16:11.737Z,101592.59
2023-05-09T05:18:39.904Z,101588.72
2023-05-09T05:21:08.632Z,101563.06
2023-05-09T05:23:38.028Z,101526.78
2023-05-09T05:26:06.397Z,101606.50
2023-05-09T05:28:34.781Z,101586.81
2023-05-09T05:31:02.893Z,101590.44
2023-05-09T05:33:31.962Z,101561.38
2023-05-09T05:36:00.043Z,101578.00
2023-05-09T05:38:28.166Z,101580.56
2023-05-09T05:40:57.940Z,101581.44
2023-05-09T05:43:28.617Z,101530.38
2023-05-09T05:45:56.736Z,101431.19
2023-05-09T05:48:27.066Z,101573.41
2023-05-09T05:50:55.545Z,101576.09
2023-05-09T05:53:24.012Z,101565.47
2023-05-09T05:55:53.426Z,101560.00
2023-05-09T05:58:22.912Z,101497.44
2023-05-09T06:00:53.704Z,101556.47
2023-05-09T06:03:21.901Z,101558.28
2023-05-09T06:05:51.082Z,101551.69
2023-05-09T06:08:19.217Z,101551.22
2023-05-09T06:10:47.374Z,101469.38
2023-05-09T06:13:15.644Z,101542.22
2023-05-09T06:15:45.292Z,101547.56
2023-05-09T06:18:14.936Z,101547.56
2023-05-09T06:20:43.247Z,101475.03
2023-05-09T06:23:11.320Z,101458.69
2023-05-09T06:25:39.368Z,101534.91
2023-05-09T06:28:07.474Z,101446.06
2023-05-09T06:30:35.783Z,101532.34
2023-05-09T06:33:06.218Z,101531.50
2023-05-09T06:35:36.911Z,101538.59
2023-05-09T06:38:05.146Z,101543.94
2023-05-09T06:40:33.255Z,101540.50
2023-05-09T06:43:01.480Z,101538.59
2023-05-09T06:45:30.880Z,101530.53
2023-05-09T06:47:59.882Z,101533.22
2023-05-09T06:50:31.472Z,101519.75
2023-05-09T06:53:00.936Z,101522.50
2023-05-09T06:55:29.052Z,101520.78
2023-05-09T06:57:57.826Z,101517.16
2023-05-09T07:00:25.915Z,101511.78
2023-05-09T07:02:54.103Z,101517.16
2023-05-09T07:05:22.706Z,101513.59
2023-05-09T07:07:55.063Z,101427.84
2023-05-09T07:10:23.447Z,101505.56
2023-05-09T07:12:52.059Z,101500.31
2023-05-09T07:15:29.106Z,101519.06
2023-05-09T07:18:05.704Z,101501.31
2023-05-09T07:20:33.797Z,101503.97
2023-05-09T07:23:04.323Z,101503.88
2023-05-09T07:25:32.629Z,101504.69
2023-05-09T07:28:01.726Z,101419.06
2023-05-09T07:30:29.764Z,101497.66
2023-05-09T07:32:57.846Z,101497.66
2023-05-09T07:35:26.665Z,101473.53
2023-05-09T07:37:54.795Z,101472.56
2023-05-09T07:40:24.267Z,101469.38
2023-05-09T07:42:56.038Z,101460.16
2023-05-09T07:45:24.667Z,101465.50
2023-05-09T07:47:57.376Z,101467.19
2023-05-09T07:50:25.825Z,101464.63
2023-05-09T07:53:04.708Z,101376.91
2023-05-09T07:55:36.888Z,101443.09
2023-05-09T07:58:09.196Z,101435.06
2023-05-09T08:00:37.572Z,101444.94
2023-05-09T08:03:05.734Z,101445.78
2023-05-09T08:05:35.672Z,101440.41
2023-05-09T08:08:05.698Z,101375.53
2023-05-09T08:10:35.918Z,101447.50
2023-05-09T08:13:03.990Z,101398.94
2023-05-09T08:15:32.806Z,101421.88
2023-05-09T08:18:01.347Z,101350.69
2023-05-09T08:20:31.424Z,101431.44
2023-05-09T08:23:00.479Z,101440.41
2023-05-09T08:25:29.853Z,101414.56
2023-05-09T08:27:59.384Z,101429.69
2023-05-09T08:30:29.547Z,101432.38
2023-05-09T08:33:02.110Z,101357.44
2023-05-09T08:35:30.689Z,101417.28
2023-05-09T08:37:59.088Z,101365.81
2023-05-09T08:40:31.279Z,101413.63
2023-05-09T08:43:01.084Z,101418.03
2023-05-09T08:45:32.588Z,101374.13
2023-05-09T08:48:05.279Z,101321.91
2023-05-09T08:50:33.493Z,101419.22
2023-05-09T08:53:02.384Z,101413.63
2023-05-09T08:55:32.294Z,101414.50
2023-05-09T08:58:02.625Z,101411.69
2023-05-09T09:00:32.571Z,101412.69
2023-05-09T09:03:04.383Z,101368.25
2023-05-09T09:08:11.016Z,101420.72
2023-05-09T09:10:43.520Z,101417.28
2023-05-09T09:13:16.759Z,101420.72
2023-05-09T09:15:47.250Z,101410.00
2023-05-09T09:18:22.243Z,101403.78
2023-05-09T09:20:54.336Z,101399.28
2023-05-09T09:23:26.728Z,101362.44
2023-05-09T09:26:04.971Z,101404.63
2023-05-09T09:28:38.271Z,101420.72
2023-05-09T09:31:21.394Z,101392.19
2023-05-09T09:33:50.636Z,101395.94
2023-05-09T09:36:27.375Z,101399.41
2023-05-09T09:39:01.661Z,101371.94
2023-05-09T09:41:35.268Z,101383.16
2023-05-09T09:44:10.298Z,101361.47
2023-05-09T09:46:46.654Z,101381.47
2023-05-09T09:49:16.500Z,101381.47
2023-05-09T09:51:45.267Z,101365.41
2023-05-09T09:54:14.191Z,101360.03
2023-05-09T09:56:46.593Z,101377.84
2023-05-09T09:59:17.575Z,101366.28
2023-05-09T10:01:59.541Z,101377.84
2023-05-09T10:04:39.030Z,101356.41
2023-05-09T10:07:13.688Z,101361.78
2023-05-09T10:09:44.240Z,101351.06
2023-05-09T10:12:15.370Z,101340.34
2023-05-09T10:14:45.496Z,101355.44
2023-05-09T10:17:16.197Z,101276.84
2023-05-09T10:19:48.063Z,101339.47
2023-05-09T10:22:18.023Z,101343.84
2023-05-09T10:24:49.703Z,101342.03
2023-05-09T10:27:22.384Z,101349.34
2023-05-09T10:29:58.834Z,101264.03
2023-05-09T10:32:33.884Z,101329.63
2023-05-09T10:35:06.992Z,101337.66
2023-05-09T10:37:35.571Z,101318.41
2023-05-09T10:40:07.759Z,101282.59
2023-05-09T10:42:37.464Z,101319.88
2023-05-09T10:45:09.725Z,101318.06
2023-05-09T10:47:39.284Z,101301.13
2023-05-09T10:50:08.526Z,101315.50
2023-05-09T10:52:37.156Z,101211.22
2023-05-09T10:55:07.106Z,101184.41
2023-05-09T10:57:40.747Z,101303.78
2023-05-09T11:00:11.805Z,101311.81
2023-05-09T11:02:39.993Z,101310.88
2023-05-09T11:05:15.988Z,101173.00
2023-05-09T11:07:44.623Z,101296.63
2023-05-09T11:10:18.128Z,101286.38
2023-05-09T11:12:59.433Z,101292.13
2023-05-09T11:15:29.315Z,101297.47
2023-05-09T11:18:08.281Z,101213.69
2023-05-09T11:20:37.623Z,101295.75
2023-05-09T11:23:08.730Z,101250.94
2023-05-09T11:25:37.255Z,101286.78
2023-05-09T11:28:05.665Z,101282.13
2023-05-09T11:30:41.844Z,101297.47
2023-05-09T11:33:24.421Z,101268.97
2023-05-09T11:36:18.416Z,101276.06
2023-05-09T11:38:47.976Z,101274.31
2023-05-09T11:41:17.527Z,101199.34
2023-05-09T11:43:45.963Z,101267.28
2023-05-09T11:46:15.603Z,101274.31
2023-05-09T11:48:44.058Z,101263.63
2023-05-09T11:51:19.139Z,101274.31
2023-05-09T11:53:48.217Z,101263.63
2023-05-09T11:56:20.027Z,101261.91
2023-05-09T11:58:48.643Z,101183.28
2023-05-09T12:01:19.643Z,101256.44
2023-05-09T12:03:48.884Z,101263.63
2023-05-09T12:06:18.557Z,101263.63
2023-05-09T12:08:47.768Z,101259.97
2023-05-09T12:11:16.553Z,101258.25
2023-05-09T12:13:48.934Z,101239.50
2023-05-09T12:16:19.696Z,101263.38
2023-05-09T12:18:50.613Z,101257.31
2023-05-09T12:21:19.006Z,101228.31
2023-05-09T12:23:52.405Z,101237.56
2023-05-09T12:26:22.956Z,101238.56
2023-05-09T12:28:51.864Z,101238.56
2023-05-09T12:31:22.749Z,101236.59
2023-05-09T12:33:50.976Z,101153.81
2023-05-09T12:36:19.119Z,101217.94
2023-05-09T12:38:54.675Z,101227.84
2023-05-09T12:41:36.860Z,101220.75
2023-05-09T12:44:10.809Z,101069.34
2023-05-09T12:46:42.122Z,101201.53
2023-05-09T12:49:22.577Z,101216.25
2023-05-09T12:51:52.801Z,101187.91
2023-05-09T12:54:25.750Z,101137.78
2023-05-09T12:56:56.966Z,101203.00
2023-05-09T12:59:26.821Z,101204.91
2023-05-09T13:01:58.700Z,101133.63
2023-05-09T13:04:28.450Z,101213.94
2023-05-09T13:07:00.174Z,101200.06
2023-05-09T13:09:31.288Z,101192.53
2023-05-09T13:12:00.759Z,101199.56
2023-05-09T13:14:28.958Z,101199.56
2023-05-09T13:16:59.071Z,101195.94
2023-05-09T13:19:27.797Z,101056.72
2023-05-09T13:21:58.394Z,101144.34
2023-05-09T13:24:26.543Z,101197.63
2023-05-09T13:26:55.471Z,101130.22
2023-05-09T13:29:25.901Z,101116.00
2023-05-09T13:31:54.023Z,101169.97
2023-05-09T13:34:23.492Z,101187.78
2023-05-09T13:36:51.776Z,101170.84
2023-05-09T13:39:19.842Z,101026.06
2023-05-09T13:41:48.941Z,101164.63
2023-05-09T13:44:17.272Z,101160.13
2023-05-09T13:46:47.874Z,101156.47
2023-05-09T13:49:20.541Z,101144.56
2023-05-09T13:51:50.873Z,101149.41
2023-05-09T13:54:20.052Z,101069.41
2023-05-09T13:56:48.614Z,101153.91
2023-05-09T13:59:16.812Z,101058.31
2023-05-09T14:01:45.026Z,101137.72
2023-05-09T14:04:14.140Z,101127.88
2023-05-09T14:06:48.221Z,101062.09
2023-05-09T14:09:18.419Z,101148.56
2023-05-09T14:11:51.704Z,101116.56
2023-05-09T14:14:19.977Z,101135.03
2023-05-09T14:16:48.486Z,101136.75
2023-05-09T14:19:17.728Z,101071.31
2023-05-09T14:21:47.011Z,101122.38
2023-05-09T14:24:18.878Z,101096.22
2023-05-09T14:26:48.882Z,101118.72
2023-05-09T14:29:18.371Z,101115.09
2023-05-09T14:31:46.610Z,101098.28
2023-05-09T14:34:15.527Z,101119.22
2023-05-09T14:36:44.172Z,101113.59
2023-05-09T14:39:12.902Z,101097.81
2023-05-09T14:41:42.296Z,101047.25
2023-05-09T14:44:12.262Z,101126.03
2023-05-09T14:46:40.422Z,101124.31
2023-05-09T14:49:09.533Z,101120.69
2023-05-09T14:51:38.066Z,101104.63
2023-05-09T14:54:07.025Z,101113.34
2023-05-09T14:56:36.338Z,101110.69
2023-05-09T14:59:06.218Z,101027.66
2023-05-09T15:01:35.839Z,101094.41
2023-05-09T15:04:04.550Z,101093.03
2023-05-09T15:06:32.814Z,101103.38
2023-05-09T15:09:00.909Z,101089.13
2023-05-09T15:11:36.385Z,101096.78
2023-05-09T15:14:14.966Z,101095.34
2023-05-09T15:16:47.544Z,101092.19
2023-05-09T15:19:16.118Z,101063.00
2023-05-09T15:21:45.428Z,100934.78
2023-05-09T15:24:14.566Z,101094.72
2023-05-09T15:26:42.811Z,101023.28
2023-05-09T15:29:11.132Z,101088.53
2023-05-09T15:31:42.409Z,101088.53
2023-05-09T15:34:14.361Z,101077.84
2023-05-09T15:36:42.736Z,101000.41
2023-05-09T15:39:10.982Z,101077.84
2023-05-09T15:41:39.530Z,101075.84
2023-05-09T15:44:07.719Z,101074.16
2023-05-09T15:46:36.069Z,100978.16
2023-05-09T15:49:07.657Z,101064.31
2023-05-09T15:51:37.327Z,101041.09
2023-05-09T15:54:07.216Z,101065.13
2023-05-09T15:56:36.569Z,100993.97
2023-05-09T15:59:04.758Z,100976.94
2023-05-09T16:01:35.286Z,101051.03
2023-05-09T16:04:05.458Z,101052.75
2023-05-09T16:06:34.223Z,101042.03
2023-05-09T16:09:08.406Z,101047.38
2023-05-09T16:11:37.051Z,100968.28
2023-05-09T16:14:11.942Z,101044.69
2023-05-09T16:16:40.404Z,101040.34
2023-05-09T16:19:08.774Z,101040.34
2023-05-09T16:21:37.934Z,100914.19
2023-05-09T16:24:08.956Z,101040.34
2023-05-09T16:26:37.893Z,100940.19
2023-05-09T16:29:06.097Z,101033.25
2023-05-09T16:31:35.644Z,100956.13
2023-05-09T16:34:04.128Z,100971.06
2023-05-09T16:36:33.635Z,101038.59
2023-05-09T16:39:02.040Z,100989.03
2023-05-09T16:41:31.709Z,101043.97
2023-05-09T16:44:00.297Z,101040.47
2023-05-09T16:46:29.951Z,101028.41
2023-05-09T16:48:58.679Z,101035.94
2023-05-09T16:51:27.265Z,101034.13
2023-05-09T16:53:55.484Z,101034.97
2023-05-09T16:56:23.967Z,101018.69
2023-05-09T16:58:53.553Z,101024.25
2023-05-09T17:01:21.763Z,101019.72
2023-05-09T17:03:49.943Z,101027.63
2023-05-09T17:06:18.804Z,101020.59
2023-05-09T17:08:47.336Z,100708.56
2023-05-09T17:11:16.612Z,100937.03
2023-05-09T17:13:45.074Z,101016.94
2023-05-09T17:16:14.714Z,100938.72
2023-05-09T17:18:46.200Z,101010.75
2023-05-09T17:21:15.117Z,100919.03
2023-05-09T17:23:45.856Z,100993.81
2023-05-09T17:26:14.170Z,100917.28
2023-05-09T17:28:42.765Z,100990.13
2023-05-09T17:31:13.220Z,100990.13
2023-05-09T17:33:45.764Z,100986.50
2023-05-09T17:36:15.141Z,101002.56
2023-05-09T17:38:43.896Z,100995.50
2023-05-09T17:41:12.505Z,100997.22
2023-05-09T17:43:42.955Z,101001.72
2023-05-09T17:46:14.891Z,100929.53
2023-05-09T17:48:44.692Z,100980.28
2023-05-09T17:51:13.171Z,100990.13
2023-05-09T17:53:41.371Z,100994.53
2023-05-09T17:56:11.455Z,100968.31
2023-05-09T17:58:45.462Z,100995.50
2023-05-09T18:01:15.748Z,100968.03
2023-05-09T18:03:48.429Z,100768.72
2023-05-09T18:06:17.004Z,100995.50
2023-05-09T18:08:46.678Z,100966.88
2023-05-09T18:11:15.521Z,101000.84
2023-05-09T18:13:43.690Z,100989.31
2023-05-09T18:16:12.328Z,100995.50
2023-05-09T18:18:49.571Z,100915.59
2023-05-09T18:21:20.570Z,100997.22
2023-05-09T18:23:48.794Z,100930.03
2023-05-09T18:26:17.828Z,100920.72
2023-05-09T18:28:46.986Z,100887.53
2023-05-09T18:31:15.475Z,100970.50
2023-05-09T18:33:46.461Z,100997.22
2023-05-09T18:36:16.628Z,100993.56
2023-05-09T18:38:48.289Z,101002.56
2023-05-09T18:41:16.869Z,100951.31
2023-05-09T18:43:46.931Z,100965.88
2023-05-09T18:46:18.146Z,100990.66
2023-05-09T18:48:48.369Z,101000.84
2023-05-09T18:51:16.747Z,100998.44
2023-05-09T18:53:45.074Z,100998.19
2023-05-09T18:56:13.255Z,100994.66
2023-05-09T18:58:42.763Z,101002.56
2023-05-09T19:01:12.729Z,100998.19
2023-05-09T19:03:45.577Z,101000.84
2023-05-09T19:06:16.840Z,100993.19
2023-05-09T19:08:46.042Z,101006.22
2023-05-09T19:11:15.172Z,100992.63
2023-05-09T19:13:48.786Z,101005.38
2023-05-09T19:16:21.670Z,101000.97
2023-05-09T19:18:49.939Z,100999.16
2023-05-09T19:21:19.530Z,101005.38
2023-05-09T19:23:51.727Z,100940.69
2023-05-09T19:26:22.150Z,101004.28
2023-05-09T19:28:50.836Z,101006.94
2023-05-09T19:31:20.667Z,101004.78
2023-05-09T19:33:49.795Z,100981.44
2023-05-09T19:36:19.476Z,101010.16
2023-05-09T19:38:47.795Z,101008.19
2023-05-09T19:41:15.916Z,100933.34
2023-05-09T19:43:44.068Z,101013.41
2023-05-09T19:46:12.264Z,101010.63
2023-05-09T19:48:40.329Z,101013.78
2023-05-09T19:51:12.466Z,100977.09
2023-05-09T19:53:42.478Z,100993.38
2023-05-09T19:56:11.794Z,101018.03
2023-05-09T19:58:40.245Z,101001.88
2023-05-09T20:01:08.418Z,101019.84
2023-05-09T20:03:37.225Z,101029.63
2023-05-09T20:06:10.287Z,101023.41
2023-05-09T20:08:38.515Z,101018.91
2023-05-09T20:11:09.496Z,101029.63
2023-05-09T20:13:55.350Z,100987.44
2023-05-09T20:16:23.885Z,101012.06
2023-05-09T20:18:55.356Z,100987.78
2023-05-09T20:21:23.715Z,101006.47
2023-05-09T20:23:52.213Z,101013.53
2023-05-09T20:26:25.008Z,101010.88
2023-05-09T20:29:01.654Z,101009.88
2023-05-09T20:31:33.033Z,100980.28
2023-05-09T20:34:01.797Z,101001.97
2023-05-09T20:36:30.124Z,100995.75
2023-05-09T20:38:58.596Z,100991.59
2023-05-09T20:41:30.070Z,100984.53
2023-05-09T20:44:06.770Z,100996.44
2023-05-09T20:46:35.454Z,100990.34
2023-05-09T20:49:04.260Z,101010.94
2023-05-09T20:51:32.712Z,100994.97
2023-05-09T20:54:01.119Z,100996.72
2023-05-09T20:56:31.003Z,100994.97
2023-05-09T20:59:01.099Z,100994.16
2023-05-09T21:01:29.775Z,100906.59
2023-05-09T21:03:59.758Z,100993.28
2023-05-09T21:06:28.324Z,100994.97
2023-05-09T21:08:56.558Z,100980.88
2023-05-09T21:11:25.316Z,100992.31
2023-05-09T21:13:54.964Z,100975.53
2023-05-09T21:16:23.258Z,100982.56
2023-05-09T21:18:51.694Z,100987.94
2023-05-09T21:21:19.908Z,100975.53
2023-05-09T21:23:48.107Z,100975.78
2023-05-09T21:26:16.626Z,100975.78
2023-05-09T21:28:44.887Z,100981.72
2023-05-09T21:31:14.594Z,100920.69
2023-05-09T21:33:42.823Z,100826.72
2023-05-09T21:36:11.177Z,100980.88
2023-05-09T21:38:39.476Z,100987.94
2023-05-09T21:41:07.662Z,100948.31
2023-05-09T21:43:36.436Z,100977.47
2023-05-09T21:46:06.246Z,100977.47
2023-05-09T21:48:36.108Z,100980.88
2023-05-09T21:51:05.003Z,100978.22
2023-05-09T21:53:33.349Z,100975.53
2023-05-09T21:56:01.596Z,100894.19
2023-05-09T21:58:29.686Z,100971.00
2023-05-09T22:00:57.767Z,100980.88
2023-05-09T22:03:26.326Z,100980.88
2023-05-09T22:05:55.953Z,100975.53
2023-05-09T22:08:24.384Z,100975.53
2023-05-09T22:10:52.730Z,100963.34
2023-05-09T22:13:20.862Z,100916.25
2023-05-09T22:15:49.589Z,100964.81
2023-05-09T22:18:17.750Z,100973.81
2023-05-09T22:20:46.151Z,100963.97
2023-05-09T22:23:15.653Z,100968.44
2023-05-09T22:25:43.946Z,100950.53
2023-05-09T22:28:12.065Z,100957.75
2023-05-09T22:30:40.206Z,100963.09
2023-05-09T22:33:08.352Z,100970.19
2023-05-09T22:35:36.687Z,100962.13
2023-05-09T22:38:04.934Z,100959.47
2023-05-09T22:40:34.745Z,100959.47
2023-05-09T22:43:02.994Z,100960.41
2023-05-09T22:45:31.397Z,100950.69
2023-05-09T22:47:59.501Z,100929.81
2023-05-09T22:50:27.606Z,100954.22
2023-05-09T22:52:55.794Z,100956.03
2023-05-09T22:55:24.266Z,100955.19
2023-05-09T22:57:53.817Z,100954.34
2023-05-09T23:00:22.155Z,100937.34
2023-05-09T23:02:50.675Z,100956.03
2023-05-09T23:05:19.324Z,100945.34
2023-05-09T23:07:47.900Z,100945.34
2023-05-09T23:10:16.370Z,100863.75
2023-05-09T23:12:45.257Z,100942.53
2023-05-09T23:15:14.833Z,100872.00
2023-05-09T23:17:43.012Z,100938.84
2023-05-09T23:20:11.917Z,100938.03
2023-05-09T23:22:40.182Z,100940.75
2023-05-09T23:25:09.845Z,100852.50
2023-05-09T23:27:40.711Z,100871.75
2023-05-09T23:30:10.713Z,100936.31
2023-05-09T23:32:40.336Z,100939.00
2023-05-09T23:35:08.956Z,100929.25
2023-05-09T23:37:37.086Z,100930.13
2023-05-09T23:40:05.616Z,100913.97
2023-05-09T23:42:33.721Z,100932.69
2023-05-09T23:45:01.872Z,100923.78
2023-05-09T23:47:30.089Z,100924.63
2023-05-09T23:49:59.712Z,100934.38
2023-05-09T23:52:27.829Z,100929.00
2023-05-09T23:54:56.119Z,100928.16
2023-05-09T23:57:24.282Z,100929.00
2023-05-09T23:59:52.379Z,100933.50
